sensor_id;sensor_type;location;lat;lon;timestamp;temperature;humidity
75471;HTU21D;64051;46.320;48.028;2023-02-15T00:01:23;-0.24;83.00
75471;HTU21D;64051;46.320;48.028;2023-02-15T00:03:49;-0.27;82.78
75471;HTU21D;64051;46.320;48.028;2023-02-15T00:06:15;-0.27;82.84
75471;HTU21D;64051;46.320;48.028;2023-02-15T00:08:40;-0.28;83.05
75471;HTU21D;64051;46.320;48.028;2023-02-15T00:11:10;-0.30;83.13
75471;HTU21D;64051;46.320;48.028;2023-02-15T00:13:37;-0.30;83.12
75471;HTU21D;64051;46.320;48.028;2023-02-15T00:16:05;-0.31;83.21
75471;HTU21D;64051;46.320;48.028;2023-02-15T00:18:31;-0.31;83.11
75471;HTU21D;64051;46.320;48.028;2023-02-15T00:20:57;-0.30;83.17
75471;HTU21D;64051;46.320;48.028;2023-02-15T00:23:22;-0.30;83.11
75471;HTU21D;64051;46.320;48.028;2023-02-15T00:25:48;-0.29;83.17
75471;HTU21D;64051;46.320;48.028;2023-02-15T00:28:15;-0.28;82.96
75471;HTU21D;64051;46.320;48.028;2023-02-15T00:30:41;-0.28;83.03
75471;HTU21D;64051;46.320;48.028;2023-02-15T00:33:07;-0.28;82.91
75471;HTU21D;64051;46.320;48.028;2023-02-15T00:35:32;-0.26;82.81
75471;HTU21D;64051;46.320;48.028;2023-02-15T00:37:59;-0.28;82.58
75471;HTU21D;64051;46.320;48.028;2023-02-15T00:40:25;-0.26;82.84
75471;HTU21D;64051;46.320;48.028;2023-02-15T00:42:50;-0.28;82.71
75471;HTU21D;64051;46.320;48.028;2023-02-15T00:45:16;-0.28;82.64
75471;HTU21D;64051;46.320;48.028;2023-02-15T00:47:42;-0.29;82.63
75471;HTU21D;64051;46.320;48.028;2023-02-15T00:50:08;-0.30;82.62
75471;HTU21D;64051;46.320;48.028;2023-02-15T00:52:33;-0.28;82.76
75471;HTU21D;64051;46.320;48.028;2023-02-15T00:54:59;-0.28;83.02
75471;HTU21D;64051;46.320;48.028;2023-02-15T00:57:25;-0.27;82.89
75471;HTU21D;64051;46.320;48.028;2023-02-15T00:59:50;-0.27;82.71
75471;HTU21D;64051;46.320;48.028;2023-02-15T01:02:16;-0.26;82.35
75471;HTU21D;64051;46.320;48.028;2023-02-15T01:04:42;-0.27;82.29
75471;HTU21D;64051;46.320;48.028;2023-02-15T01:07:08;-0.28;82.59
75471;HTU21D;64051;46.320;48.028;2023-02-15T01:09:33;-0.30;82.55
75471;HTU21D;64051;46.320;48.028;2023-02-15T01:11:59;-0.28;82.47
75471;HTU21D;64051;46.320;48.028;2023-02-15T01:14:25;-0.30;82.82
75471;HTU21D;64051;46.320;48.028;2023-02-15T01:16:51;-0.28;82.64
75471;HTU21D;64051;46.320;48.028;2023-02-15T01:19:17;-0.26;82.72
75471;HTU21D;64051;46.320;48.028;2023-02-15T01:21:42;-0.26;82.42
75471;HTU21D;64051;46.320;48.028;2023-02-15T01:24:14;-0.23;82.83
75471;HTU21D;64051;46.320;48.028;2023-02-15T01:26:39;-0.21;82.81
75471;HTU21D;64051;46.320;48.028;2023-02-15T01:29:05;-0.19;82.73
75471;HTU21D;64051;46.320;48.028;2023-02-15T01:31:31;-0.17;82.79
75471;HTU21D;64051;46.320;48.028;2023-02-15T01:33:56;-0.16;82.67
75471;HTU21D;64051;46.320;48.028;2023-02-15T01:36:22;-0.15;82.78
75471;HTU21D;64051;46.320;48.028;2023-02-15T01:38:48;-0.15;82.76
75471;HTU21D;64051;46.320;48.028;2023-02-15T01:41:14;-0.15;82.76
75471;HTU21D;64051;46.320;48.028;2023-02-15T01:43:52;-0.14;82.68
75471;HTU21D;64051;46.320;48.028;2023-02-15T01:46:19;-0.16;82.68
75471;HTU21D;64051;46.320;48.028;2023-02-15T01:48:48;-0.16;82.74
75471;HTU21D;64051;46.320;48.028;2023-02-15T01:51:17;-0.16;82.82
75471;HTU21D;64051;46.320;48.028;2023-02-15T01:53:47;-0.17;82.79
75471;HTU21D;64051;46.320;48.028;2023-02-15T01:56:15;-0.19;82.60
75471;HTU21D;64051;46.320;48.028;2023-02-15T01:58:47;-0.21;82.70
75471;HTU21D;64051;46.320;48.028;2023-02-15T02:01:16;-0.23;82.75
75471;HTU21D;64051;46.320;48.028;2023-02-15T02:06:29;-0.27;82.84
75471;HTU21D;64051;46.320;48.028;2023-02-15T02:08:55;-0.28;82.96
75471;HTU21D;64051;46.320;48.028;2023-02-15T02:11:24;-0.27;83.10
75471;HTU21D;64051;46.320;48.028;2023-02-15T02:13:50;-0.27;83.17
75471;HTU21D;64051;46.320;48.028;2023-02-15T02:18:58;-0.27;83.49
75471;HTU21D;64051;46.320;48.028;2023-02-15T02:29:22;-0.17;84.20
75471;HTU21D;64051;46.320;48.028;2023-02-15T02:34:27;-0.13;84.32
75471;HTU21D;64051;46.320;48.028;2023-02-15T02:39:47;-0.05;85.27
75471;HTU21D;64051;46.320;48.028;2023-02-15T02:42:17;-0.00;86.75
75471;HTU21D;64051;46.320;48.028;2023-02-15T02:44:46;0.06;86.06
75471;HTU21D;64051;46.320;48.028;2023-02-15T02:47:15;0.12;86.34
75471;HTU21D;64051;46.320;48.028;2023-02-15T02:49:43;0.19;86.69
75471;HTU21D;64051;46.320;48.028;2023-02-15T02:54:55;0.36;88.31
75471;HTU21D;64051;46.320;48.028;2023-02-15T02:57:22;0.43;87.55
75471;HTU21D;64051;46.320;48.028;2023-02-15T02:59:49;0.50;87.61
75471;HTU21D;64051;46.320;48.028;2023-02-15T03:02:17;0.57;89.21
75471;HTU21D;64051;46.320;48.028;2023-02-15T03:04:45;0.62;89.24
75471;HTU21D;64051;46.320;48.028;2023-02-15T03:07:17;0.65;88.52
75471;HTU21D;64051;46.320;48.028;2023-02-15T03:09:49;0.72;90.59
75471;HTU21D;64051;46.320;48.028;2023-02-15T03:12:17;0.75;89.64
75471;HTU21D;64051;46.320;48.028;2023-02-15T03:14:59;0.79;89.54
75471;HTU21D;64051;46.320;48.028;2023-02-15T03:17:27;0.82;89.24
75471;HTU21D;64051;46.320;48.028;2023-02-15T03:19:55;0.89;89.61
75471;HTU21D;64051;46.320;48.028;2023-02-15T03:22:29;0.93;89.73
75471;HTU21D;64051;46.320;48.028;2023-02-15T03:27:25;0.99;89.44
75471;HTU21D;64051;46.320;48.028;2023-02-15T03:29:53;1.03;89.20
75471;HTU21D;64051;46.320;48.028;2023-02-15T03:32:21;1.07;89.70
75471;HTU21D;64051;46.320;48.028;2023-02-15T03:34:48;1.09;90.17
75471;HTU21D;64051;46.320;48.028;2023-02-15T03:37:27;1.12;88.84
75471;HTU21D;64051;46.320;48.028;2023-02-15T03:40:00;1.17;89.39
75471;HTU21D;64051;46.320;48.028;2023-02-15T03:42:47;1.20;89.93
75471;HTU21D;64051;46.320;48.028;2023-02-15T03:45:15;1.23;89.59
75471;HTU21D;64051;46.320;48.028;2023-02-15T03:47:44;1.26;88.54
75471;HTU21D;64051;46.320;48.028;2023-02-15T03:50:11;1.27;89.04
75471;HTU21D;64051;46.320;48.028;2023-02-15T03:52:57;1.31;88.31
75471;HTU21D;64051;46.320;48.028;2023-02-15T03:55:24;1.31;88.62
75471;HTU21D;64051;46.320;48.028;2023-02-15T03:57:50;1.33;89.42
75471;HTU21D;64051;46.320;48.028;2023-02-15T04:00:35;1.34;87.80
75471;HTU21D;64051;46.320;48.028;2023-02-15T04:06:23;1.38;87.22
75471;HTU21D;64051;46.320;48.028;2023-02-15T04:08:49;1.36;85.87
75471;HTU21D;64051;46.320;48.028;2023-02-15T04:11:33;1.36;86.29
75471;HTU21D;64051;46.320;48.028;2023-02-15T04:13:59;1.36;85.61
75471;HTU21D;64051;46.320;48.028;2023-02-15T04:16:45;1.36;85.50
75471;HTU21D;64051;46.320;48.028;2023-02-15T04:19:10;1.38;85.96
75471;HTU21D;64051;46.320;48.028;2023-02-15T04:21:55;1.41;85.59
75471;HTU21D;64051;46.320;48.028;2023-02-15T04:24:40;1.42;85.96
75471;HTU21D;64051;46.320;48.028;2023-02-15T04:27:24;1.47;85.63
75471;HTU21D;64051;46.320;48.028;2023-02-15T04:29:50;1.46;85.92
75471;HTU21D;64051;46.320;48.028;2023-02-15T04:32:16;1.51;86.70
75471;HTU21D;64051;46.320;48.028;2023-02-15T04:34:41;1.52;86.75
75471;HTU21D;64051;46.320;48.028;2023-02-15T04:37:07;1.56;86.72
75471;HTU21D;64051;46.320;48.028;2023-02-15T04:39:33;1.58;86.02
75471;HTU21D;64051;46.320;48.028;2023-02-15T04:41:58;1.64;85.90
75471;HTU21D;64051;46.320;48.028;2023-02-15T04:44:24;1.67;86.54
75471;HTU21D;64051;46.320;48.028;2023-02-15T04:46:50;1.75;86.67
75471;HTU21D;64051;46.320;48.028;2023-02-15T04:49:15;1.80;85.69
75471;HTU21D;64051;46.320;48.028;2023-02-15T04:51:41;1.86;85.99
75471;HTU21D;64051;46.320;48.028;2023-02-15T04:54:07;1.91;85.90
75471;HTU21D;64051;46.320;48.028;2023-02-15T04:56:32;2.00;86.29
75471;HTU21D;64051;46.320;48.028;2023-02-15T04:59:00;2.09;86.52
75471;HTU21D;64051;46.320;48.028;2023-02-15T05:01:28;2.16;86.09
75471;HTU21D;64051;46.320;48.028;2023-02-15T05:03:54;2.24;85.86
75471;HTU21D;64051;46.320;48.028;2023-02-15T05:06:20;2.32;85.95
75471;HTU21D;64051;46.320;48.028;2023-02-15T05:08:46;2.39;86.44
75471;HTU21D;64051;46.320;48.028;2023-02-15T05:11:11;2.46;86.31
75471;HTU21D;64051;46.320;48.028;2023-02-15T05:13:37;2.53;85.69
75471;HTU21D;64051;46.320;48.028;2023-02-15T05:16:03;2.59;85.68
75471;HTU21D;64051;46.320;48.028;2023-02-15T05:18:29;2.65;85.87
75471;HTU21D;64051;46.320;48.028;2023-02-15T05:20:57;2.71;85.31
75471;HTU21D;64051;46.320;48.028;2023-02-15T05:23:26;2.76;85.75
75471;HTU21D;64051;46.320;48.028;2023-02-15T05:25:51;2.80;85.08
75471;HTU21D;64051;46.320;48.028;2023-02-15T05:28:36;2.84;84.88
75471;HTU21D;64051;46.320;48.028;2023-02-15T05:31:05;2.86;84.75
75471;HTU21D;64051;46.320;48.028;2023-02-15T05:33:31;2.88;84.77
75471;HTU21D;64051;46.320;48.028;2023-02-15T05:35:57;2.89;84.48
75471;HTU21D;64051;46.320;48.028;2023-02-15T05:38:26;2.91;84.65
75471;HTU21D;64051;46.320;48.028;2023-02-15T05:41:00;2.91;84.69
75471;HTU21D;64051;46.320;48.028;2023-02-15T05:43:30;2.91;84.55
75471;HTU21D;64051;46.320;48.028;2023-02-15T05:45:58;2.90;84.48
75471;HTU21D;64051;46.320;48.028;2023-02-15T05:48:25;2.88;84.31
75471;HTU21D;64051;46.320;48.028;2023-02-15T05:53:22;2.94;84.57
75471;HTU21D;64051;46.320;48.028;2023-02-15T05:55:48;2.96;84.59
75471;HTU21D;64051;46.320;48.028;2023-02-15T05:58:14;3.02;84.60
75471;HTU21D;64051;46.320;48.028;2023-02-15T06:00:39;3.08;85.17
75471;HTU21D;64051;46.320;48.028;2023-02-15T06:03:08;3.12;84.93
75471;HTU21D;64051;46.320;48.028;2023-02-15T06:05:37;3.16;84.71
75471;HTU21D;64051;46.320;48.028;2023-02-15T06:08:09;3.21;84.52
75471;HTU21D;64051;46.320;48.028;2023-02-15T06:10:35;3.25;84.36
75471;HTU21D;64051;46.320;48.028;2023-02-15T06:13:04;3.29;84.56
75471;HTU21D;64051;46.320;48.028;2023-02-15T06:15:32;3.32;84.42
75471;HTU21D;64051;46.320;48.028;2023-02-15T06:17:58;3.34;84.35
75471;HTU21D;64051;46.320;48.028;2023-02-15T06:20:24;3.36;83.98
75471;HTU21D;64051;46.320;48.028;2023-02-15T06:22:53;3.34;83.80
75471;HTU21D;64051;46.320;48.028;2023-02-15T06:25:21;3.32;83.74
75471;HTU21D;64051;46.320;48.028;2023-02-15T06:27:47;3.32;83.81
75471;HTU21D;64051;46.320;48.028;2023-02-15T06:30:13;3.32;83.95
75471;HTU21D;64051;46.320;48.028;2023-02-15T06:32:42;3.30;83.45
75471;HTU21D;64051;46.320;48.028;2023-02-15T06:35:08;3.27;83.45
75471;HTU21D;64051;46.320;48.028;2023-02-15T06:37:37;3.26;83.61
75471;HTU21D;64051;46.320;48.028;2023-02-15T06:40:06;3.27;83.74
75471;HTU21D;64051;46.320;48.028;2023-02-15T06:42:33;3.27;83.81
75471;HTU21D;64051;46.320;48.028;2023-02-15T06:44:59;3.28;83.79
75471;HTU21D;64051;46.320;48.028;2023-02-15T06:47:25;3.31;83.81
75471;HTU21D;64051;46.320;48.028;2023-02-15T06:49:51;3.33;83.87
75471;HTU21D;64051;46.320;48.028;2023-02-15T06:52:17;3.35;83.63
75471;HTU21D;64051;46.320;48.028;2023-02-15T06:54:42;3.36;83.38
75471;HTU21D;64051;46.320;48.028;2023-02-15T06:57:08;3.36;83.36
75471;HTU21D;64051;46.320;48.028;2023-02-15T06:59:41;3.38;83.27
75471;HTU21D;64051;46.320;48.028;2023-02-15T07:02:10;3.40;83.39
75471;HTU21D;64051;46.320;48.028;2023-02-15T07:04:36;3.43;83.51
75471;HTU21D;64051;46.320;48.028;2023-02-15T07:07:02;3.50;83.53
75471;HTU21D;64051;46.320;48.028;2023-02-15T07:09:28;3.58;83.56
75471;HTU21D;64051;46.320;48.028;2023-02-15T07:11:53;3.67;82.84
75471;HTU21D;64051;46.320;48.028;2023-02-15T07:14:38;3.74;82.69
75471;HTU21D;64051;46.320;48.028;2023-02-15T07:17:05;3.80;82.93
75471;HTU21D;64051;46.320;48.028;2023-02-15T07:19:31;3.87;82.62
75471;HTU21D;64051;46.320;48.028;2023-02-15T07:21:58;3.94;82.03
75471;HTU21D;64051;46.320;48.028;2023-02-15T07:24:25;4.02;82.17
75471;HTU21D;64051;46.320;48.028;2023-02-15T07:26:57;4.06;82.45
75471;HTU21D;64051;46.320;48.028;2023-02-15T07:29:28;4.12;82.38
75471;HTU21D;64051;46.320;48.028;2023-02-15T07:31:54;4.22;82.25
75471;HTU21D;64051;46.320;48.028;2023-02-15T07:34:26;4.33;82.05
75471;HTU21D;64051;46.320;48.028;2023-02-15T07:36:57;4.44;81.99
75471;HTU21D;64051;46.320;48.028;2023-02-15T07:39:26;4.51;80.39
75471;HTU21D;64051;46.320;48.028;2023-02-15T07:41:52;4.56;81.03
75471;HTU21D;64051;46.320;48.028;2023-02-15T07:44:22;4.64;81.31
75471;HTU21D;64051;46.320;48.028;2023-02-15T07:46:48;4.69;81.62
75471;HTU21D;64051;46.320;48.028;2023-02-15T07:49:13;4.78;81.33
75471;HTU21D;64051;46.320;48.028;2023-02-15T07:51:40;4.89;80.96
75471;HTU21D;64051;46.320;48.028;2023-02-15T07:54:06;5.04;81.37
75471;HTU21D;64051;46.320;48.028;2023-02-15T07:56:32;5.18;80.58
75471;HTU21D;64051;46.320;48.028;2023-02-15T07:58:58;5.28;80.04
75471;HTU21D;64051;46.320;48.028;2023-02-15T08:01:33;5.37;78.40
75471;HTU21D;64051;46.320;48.028;2023-02-15T08:04:03;5.47;79.45
75471;HTU21D;64051;46.320;48.028;2023-02-15T08:06:30;5.59;78.76
75471;HTU21D;64051;46.320;48.028;2023-02-15T08:08:56;5.70;79.78
75471;HTU21D;64051;46.320;48.028;2023-02-15T08:11:23;5.86;79.73
75471;HTU21D;64051;46.320;48.028;2023-02-15T08:14:07;6.00;79.04
75471;HTU21D;64051;46.320;48.028;2023-02-15T08:16:37;6.13;75.44
75471;HTU21D;64051;46.320;48.028;2023-02-15T08:21:39;6.15;77.66
75471;HTU21D;64051;46.320;48.028;2023-02-15T08:24:08;6.16;76.41
75471;HTU21D;64051;46.320;48.028;2023-02-15T08:26:34;6.13;75.80
75471;HTU21D;64051;46.320;48.028;2023-02-15T08:29:00;6.19;78.30
75471;HTU21D;64051;46.320;48.028;2023-02-15T08:31:27;6.23;77.21
75471;HTU21D;64051;46.320;48.028;2023-02-15T08:33:54;6.25;76.97
75471;HTU21D;64051;46.320;48.028;2023-02-15T08:36:22;6.26;78.99
75471;HTU21D;64051;46.320;48.028;2023-02-15T08:38:48;6.30;78.05
75471;HTU21D;64051;46.320;48.028;2023-02-15T08:41:21;6.39;77.66
75471;HTU21D;64051;46.320;48.028;2023-02-15T08:43:48;6.50;77.25
75471;HTU21D;64051;46.320;48.028;2023-02-15T08:46:15;6.66;77.43
75471;HTU21D;64051;46.320;48.028;2023-02-15T08:48:44;6.78;75.54
75471;HTU21D;64051;46.320;48.028;2023-02-15T08:51:11;6.87;76.29
75471;HTU21D;64051;46.320;48.028;2023-02-15T08:53:41;6.95;76.34
75471;HTU21D;64051;46.320;48.028;2023-02-15T08:56:24;7.00;75.98
75471;HTU21D;64051;46.320;48.028;2023-02-15T08:58:50;7.10;74.75
75471;HTU21D;64051;46.320;48.028;2023-02-15T09:01:17;7.17;75.63
75471;HTU21D;64051;46.320;48.028;2023-02-15T09:03:55;7.27;75.73
75471;HTU21D;64051;46.320;48.028;2023-02-15T09:06:24;7.35;75.78
75471;HTU21D;64051;46.320;48.028;2023-02-15T09:08:59;7.41;73.69
75471;HTU21D;64051;46.320;48.028;2023-02-15T09:11:26;7.46;73.61
75471;HTU21D;64051;46.320;48.028;2023-02-15T09:14:05;7.48;74.45
75471;HTU21D;64051;46.320;48.028;2023-02-15T09:16:32;7.55;72.48
75471;HTU21D;64051;46.320;48.028;2023-02-15T09:18:57;7.58;72.72
75471;HTU21D;64051;46.320;48.028;2023-02-15T09:21:24;7.60;70.93
75471;HTU21D;64051;46.320;48.028;2023-02-15T09:23:51;7.61;73.82
75471;HTU21D;64051;46.320;48.028;2023-02-15T09:26:18;7.63;75.47
75471;HTU21D;64051;46.320;48.028;2023-02-15T09:28:43;7.65;73.53
75471;HTU21D;64051;46.320;48.028;2023-02-15T09:31:17;7.70;72.36
75471;HTU21D;64051;46.320;48.028;2023-02-15T09:33:46;7.76;72.72
75471;HTU21D;64051;46.320;48.028;2023-02-15T09:36:25;7.79;75.60
75471;HTU21D;64051;46.320;48.028;2023-02-15T09:39:01;7.87;72.72
75471;HTU21D;64051;46.320;48.028;2023-02-15T09:46:34;8.15;68.80
75471;HTU21D;64051;46.320;48.028;2023-02-15T09:49:13;8.15;68.97
75471;HTU21D;64051;46.320;48.028;2023-02-15T09:51:50;8.08;71.13
75471;HTU21D;64051;46.320;48.028;2023-02-15T09:56:58;8.04;71.79
75471;HTU21D;64051;46.320;48.028;2023-02-15T10:25:46;8.38;68.23
75471;HTU21D;64051;46.320;48.028;2023-02-15T10:28:18;8.29;67.52
75471;HTU21D;64051;46.320;48.028;2023-02-15T10:31:04;8.18;66.99
75471;HTU21D;64051;46.320;48.028;2023-02-15T10:33:37;8.04;66.94
75471;HTU21D;64051;46.320;48.028;2023-02-15T10:36:06;7.89;68.22
75471;HTU21D;64051;46.320;48.028;2023-02-15T10:38:42;7.76;69.46
75471;HTU21D;64051;46.320;48.028;2023-02-15T10:41:20;7.64;69.84
75471;HTU21D;64051;46.320;48.028;2023-02-15T10:44:11;7.59;69.26
75471;HTU21D;64051;46.320;48.028;2023-02-15T10:59:34;6.56;72.74
75471;HTU21D;64051;46.320;48.028;2023-02-15T11:02:13;6.39;73.58
75471;HTU21D;64051;46.320;48.028;2023-02-15T11:07:29;6.16;75.16
75471;HTU21D;64051;46.320;48.028;2023-02-15T11:12:47;5.96;75.74
75471;HTU21D;64051;46.320;48.028;2023-02-15T11:15:19;5.93;75.97
75471;HTU21D;64051;46.320;48.028;2023-02-15T11:17:53;5.93;75.27
75471;HTU21D;64051;46.320;48.028;2023-02-15T11:20:23;5.95;76.09
75471;HTU21D;64051;46.320;48.028;2023-02-15T11:22:51;5.94;75.40
75471;HTU21D;64051;46.320;48.028;2023-02-15T11:25:31;5.95;75.60
75471;HTU21D;64051;46.320;48.028;2023-02-15T11:27:57;5.92;75.25
75471;HTU21D;64051;46.320;48.028;2023-02-15T11:30:57;5.92;75.13
75471;HTU21D;64051;46.320;48.028;2023-02-15T11:33:18;5.81;75.73
75471;HTU21D;64051;46.320;48.028;2023-02-15T11:38:17;5.62;75.33
75471;HTU21D;64051;46.320;48.028;2023-02-15T11:40:52;5.47;75.35
75471;HTU21D;64051;46.320;48.028;2023-02-15T11:43:28;5.32;75.66
75471;HTU21D;64051;46.320;48.028;2023-02-15T11:45:56;5.18;75.80
75471;HTU21D;64051;46.320;48.028;2023-02-15T11:48:25;5.07;76.03
75471;HTU21D;64051;46.320;48.028;2023-02-15T11:50:51;4.96;75.82
75471;HTU21D;64051;46.320;48.028;2023-02-15T11:53:20;4.87;76.18
75471;HTU21D;64051;46.320;48.028;2023-02-15T11:55:56;4.81;76.42
75471;HTU21D;64051;46.320;48.028;2023-02-15T12:00:48;4.64;76.80
75471;HTU21D;64051;46.320;48.028;2023-02-15T12:03:16;4.58;76.84
75471;HTU21D;64051;46.320;48.028;2023-02-15T12:05:45;4.46;76.71
75471;HTU21D;64051;46.320;48.028;2023-02-15T12:08:18;4.32;76.73
75471;HTU21D;64051;46.320;48.028;2023-02-15T12:10:55;4.18;77.22
75471;HTU21D;64051;46.320;48.028;2023-02-15T12:13:22;4.05;77.21
75471;HTU21D;64051;46.320;48.028;2023-02-15T12:15:53;3.94;77.30
75471;HTU21D;64051;46.320;48.028;2023-02-15T12:18:31;3.80;77.34
75471;HTU21D;64051;46.320;48.028;2023-02-15T12:21:11;3.62;77.51
75471;HTU21D;64051;46.320;48.028;2023-02-15T12:26:10;3.34;78.24
75471;HTU21D;64051;46.320;48.028;2023-02-15T12:28:51;3.21;77.98
75471;HTU21D;64051;46.320;48.028;2023-02-15T12:33:43;3.03;78.30
75471;HTU21D;64051;46.320;48.028;2023-02-15T12:36:12;2.96;79.27
75471;HTU21D;64051;46.320;48.028;2023-02-15T12:39:05;2.88;78.32
75471;HTU21D;64051;46.320;48.028;2023-02-15T12:44:25;2.76;78.92
75471;HTU21D;64051;46.320;48.028;2023-02-15T12:47:05;2.72;78.76
75471;HTU21D;64051;46.320;48.028;2023-02-15T12:49:37;2.67;78.75
75471;HTU21D;64051;46.320;48.028;2023-02-15T12:56:54;2.60;79.90
75471;HTU21D;64051;46.320;48.028;2023-02-15T12:59:20;2.57;79.16
75471;HTU21D;64051;46.320;48.028;2023-02-15T13:01:46;2.53;79.36
75471;HTU21D;64051;46.320;48.028;2023-02-15T13:04:33;2.51;79.40
75471;HTU21D;64051;46.320;48.028;2023-02-15T13:06:59;2.51;79.40
75471;HTU21D;64051;46.320;48.028;2023-02-15T13:14:41;2.56;79.14
75471;HTU21D;64051;46.320;48.028;2023-02-15T13:17:10;2.57;80.33
75471;HTU21D;64051;46.320;48.028;2023-02-15T13:19:44;2.58;79.63
75471;HTU21D;64051;46.320;48.028;2023-02-15T13:22:20;2.58;79.36
75471;HTU21D;64051;46.320;48.028;2023-02-15T13:24:51;2.56;79.78
75471;HTU21D;64051;46.320;48.028;2023-02-15T13:27:26;2.57;80.27
75471;HTU21D;64051;46.320;48.028;2023-02-15T13:29:56;2.57;79.53
75471;HTU21D;64051;46.320;48.028;2023-02-15T13:32:31;2.58;80.25
75471;HTU21D;64051;46.320;48.028;2023-02-15T13:35:16;2.56;79.85
75471;HTU21D;64051;46.320;48.028;2023-02-15T13:43:13;2.41;79.78
75471;HTU21D;64051;46.320;48.028;2023-02-15T13:59:28;2.12;79.87
75471;HTU21D;64051;46.320;48.028;2023-02-15T14:26:42;1.85;79.43
75471;HTU21D;64051;46.320;48.028;2023-02-15T14:28:52;1.85;79.61
75471;HTU21D;64051;46.320;48.028;2023-02-15T14:31:30;1.84;79.56
75471;HTU21D;64051;46.320;48.028;2023-02-15T14:34:07;1.82;79.78
75471;HTU21D;64051;46.320;48.028;2023-02-15T14:36:47;1.81;79.54
75471;HTU21D;64051;46.320;48.028;2023-02-15T14:42:11;1.76;79.91
75471;HTU21D;64051;46.320;48.028;2023-02-15T14:44:40;1.73;80.35
75471;HTU21D;64051;46.320;48.028;2023-02-15T14:49:46;1.72;79.62
75471;HTU21D;64051;46.320;48.028;2023-02-15T14:52:12;1.69;79.72
75471;HTU21D;64051;46.320;48.028;2023-02-15T14:59:55;1.66;80.47
75471;HTU21D;64051;46.320;48.028;2023-02-15T15:02:25;1.66;79.74
75471;HTU21D;64051;46.320;48.028;2023-02-15T15:04:58;1.64;79.69
75471;HTU21D;64051;46.320;48.028;2023-02-15T15:07:41;1.63;79.77
75471;HTU21D;64051;46.320;48.028;2023-02-15T15:12:43;1.58;79.65
75471;HTU21D;64051;46.320;48.028;2023-02-15T15:20:43;1.55;79.53
75471;HTU21D;64051;46.320;48.028;2023-02-15T15:30:55;1.48;79.65
75471;HTU21D;64051;46.320;48.028;2023-02-15T15:47:02;1.33;79.68
75471;HTU21D;64051;46.320;48.028;2023-02-15T15:49:33;1.33;79.83
75471;HTU21D;64051;46.320;48.028;2023-02-15T15:52:01;1.29;79.89
75471;HTU21D;64051;46.320;48.028;2023-02-15T15:54:40;1.28;80.10
75471;HTU21D;64051;46.320;48.028;2023-02-15T15:57:12;1.26;80.04
75471;HTU21D;64051;46.320;48.028;2023-02-15T15:59:50;1.25;80.12
75471;HTU21D;64051;46.320;48.028;2023-02-15T16:02:22;1.23;79.91
75471;HTU21D;64051;46.320;48.028;2023-02-15T16:05:05;1.20;79.81
75471;HTU21D;64051;46.320;48.028;2023-02-15T16:07:50;1.17;79.98
75471;HTU21D;64051;46.320;48.028;2023-02-15T16:10:25;1.14;79.82
75471;HTU21D;64051;46.320;48.028;2023-02-15T16:12:51;1.12;80.39
75471;HTU21D;64051;46.320;48.028;2023-02-15T16:15:27;1.07;80.06
75471;HTU21D;64051;46.320;48.028;2023-02-15T16:17:57;1.05;81.83
75471;HTU21D;64051;46.320;48.028;2023-02-15T16:20:26;1.02;80.07
75471;HTU21D;64051;46.320;48.028;2023-02-15T16:28:51;0.83;82.10
75471;HTU21D;64051;46.320;48.028;2023-02-15T16:31:36;0.78;80.97
75471;HTU21D;64051;46.320;48.028;2023-02-15T16:34:38;0.72;81.75
75471;HTU21D;64051;46.320;48.028;2023-02-15T16:39:46;0.61;80.93
75471;HTU21D;64051;46.320;48.028;2023-02-15T16:42:16;0.57;81.08
75471;HTU21D;64051;46.320;48.028;2023-02-15T16:44:55;0.52;80.75
75471;HTU21D;64051;46.320;48.028;2023-02-15T16:47:36;0.47;80.56
75471;HTU21D;64051;46.320;48.028;2023-02-15T16:50:06;0.42;81.39
75471;HTU21D;64051;46.320;48.028;2023-02-15T16:52:38;0.37;80.85
75471;HTU21D;64051;46.320;48.028;2023-02-15T16:55:18;0.33;80.69
75471;HTU21D;64051;46.320;48.028;2023-02-15T16:57:49;0.28;81.11
75471;HTU21D;64051;46.320;48.028;2023-02-15T17:00:18;0.27;80.80
75471;HTU21D;64051;46.320;48.028;2023-02-15T17:03:00;0.24;81.20
75471;HTU21D;64051;46.320;48.028;2023-02-15T17:05:40;0.22;81.02
75471;HTU21D;64051;46.320;48.028;2023-02-15T17:16:53;0.04;81.39
75471;HTU21D;64051;46.320;48.028;2023-02-15T17:19:32;0.01;81.81
75471;HTU21D;64051;46.320;48.028;2023-02-15T17:22:17;0.01;82.28
75471;HTU21D;64051;46.320;48.028;2023-02-15T17:25:03;-0.03;82.10
75471;HTU21D;64051;46.320;48.028;2023-02-15T17:27:34;-0.05;82.42
75471;HTU21D;64051;46.320;48.028;2023-02-15T17:30:01;-0.06;82.20
75471;HTU21D;64051;46.320;48.028;2023-02-15T17:32:31;-0.06;82.62
75471;HTU21D;64051;46.320;48.028;2023-02-15T17:35:05;-0.06;82.29
75471;HTU21D;64051;46.320;48.028;2023-02-15T17:40:50;-0.00;82.05
75471;HTU21D;64051;46.320;48.028;2023-02-15T17:43:18;0.01;82.18
75471;HTU21D;64051;46.320;48.028;2023-02-15T17:45:46;0.02;82.20
75471;HTU21D;64051;46.320;48.028;2023-02-15T17:48:31;0.03;81.79
75471;HTU21D;64051;46.320;48.028;2023-02-15T17:51:04;0.06;81.39
75471;HTU21D;64051;46.320;48.028;2023-02-15T17:53:38;0.10;81.64
75471;HTU21D;64051;46.320;48.028;2023-02-15T17:56:16;0.13;81.29
75471;HTU21D;64051;46.320;48.028;2023-02-15T17:58:48;0.14;81.04
75471;HTU21D;64051;46.320;48.028;2023-02-15T18:01:17;0.16;81.09
75471;HTU21D;64051;46.320;48.028;2023-02-15T18:04:09;0.20;81.19
75471;HTU21D;64051;46.320;48.028;2023-02-15T18:06:54;0.19;81.73
75471;HTU21D;64051;46.320;48.028;2023-02-15T18:09:47;0.19;81.94
75471;HTU21D;64051;46.320;48.028;2023-02-15T18:12:33;0.19;81.38
75471;HTU21D;64051;46.320;48.028;2023-02-15T18:15:06;0.21;81.68
75471;HTU21D;64051;46.320;48.028;2023-02-15T18:17:39;0.22;81.94
75471;HTU21D;64051;46.320;48.028;2023-02-15T18:22:43;0.25;81.39
75471;HTU21D;64051;46.320;48.028;2023-02-15T18:25:12;0.25;81.65
75471;HTU21D;64051;46.320;48.028;2023-02-15T18:27:38;0.25;81.67
75471;HTU21D;64051;46.320;48.028;2023-02-15T18:30:17;0.27;81.10
75471;HTU21D;64051;46.320;48.028;2023-02-15T18:33:02;0.24;81.72
75471;HTU21D;64051;46.320;48.028;2023-02-15T18:35:29;0.28;81.23
75471;HTU21D;64051;46.320;48.028;2023-02-15T18:37:58;0.27;81.59
75471;HTU21D;64051;46.320;48.028;2023-02-15T18:40:28;0.25;81.20
75471;HTU21D;64051;46.320;48.028;2023-02-15T18:42:57;0.23;81.38
75471;HTU21D;64051;46.320;48.028;2023-02-15T18:45:26;0.23;81.07
75471;HTU21D;64051;46.320;48.028;2023-02-15T18:47:56;0.24;81.28
75471;HTU21D;64051;46.320;48.028;2023-02-15T18:50:37;0.24;81.04
75471;HTU21D;64051;46.320;48.028;2023-02-15T18:53:19;0.27;81.14
75471;HTU21D;64051;46.320;48.028;2023-02-15T18:55:56;0.24;80.85
75471;HTU21D;64051;46.320;48.028;2023-02-15T18:58:24;0.22;80.73
75471;HTU21D;64051;46.320;48.028;2023-02-15T19:00:54;0.20;80.71
75471;HTU21D;64051;46.320;48.028;2023-02-15T19:03:27;0.18;80.56
75471;HTU21D;64051;46.320;48.028;2023-02-15T19:05:53;0.16;80.46
75471;HTU21D;64051;46.320;48.028;2023-02-15T19:08:21;0.14;80.52